Cascade, Iowa
Current Conditions -  °F | °C
As of 3:35 PM on Thursday 23 Oct 2014 (Local Time) from KMXO Reporting Station
Overcast Overcast  
Wind Chill: 12°   Ceiling: 1400
Heat Index: 12°   Visibility: 10mi
Dew Point: 10°   Wind: 0mph
Humidity: 88%   Direction: NA
Pressure: 30.03"   Gusts: NA
Location:  42.3°N, 91.01°W
Report Text: KMXO 232035Z AUTO 00000KT 10SM OVC014 12/10 A3003 RMK AO2
Loading
Personal Weather Stations






























Interactive Weather Map
Tropical Storm Tracking
New forecast layout! Learn more

10-Day Weather Forecast

Advertisements
Track Severe Weather on mobile